Rockford, Washington
Current Conditions -  °F | °C
As of 9:53 AM on Friday 28 Nov 2014 (Local Time) from KSFF Reporting Station
Scattered Clouds Scattered Clouds  
Wind Chill: 54°   Ceiling: Unl
Heat Index: 54°   Visibility: 10mi
Dew Point: 42°   Wind: 21mph
Humidity: 64%   Direction: 220°SW
Pressure: 29.49"   Gusts: 37mph
Location:  47.45°N, 117.13°W
Report Text: KSFF 281753Z 22018G32KT 10SM SCT095 12/06 A2949 RMK AO2 PK WND 20032/1738 SLP982 T01220056 10122 20100 58019
Loading
Personal Weather Stations






























Interactive Weather Map New forecast layout! Learn more

10-Day Weather Forecast

Advertisements
Track Severe Weather on mobile